Time;durP1;ratioP1;P1;durP2;ratioP2;P2;SDS_P1;SDS_P2;PMS_P1;PMS_P2;Temp;Humidity;BMP_temperature;BMP_pressure;BME280_temperature;BME280_humidity;BME280_pressure;Samples;Min_cycle;Max_cycle;Signal;HPM_P1;HPM_P2
2022/04/10 00:00:53;;;;;;;2.80;1.50;;;;;;;;;;5043776;28;20124;-49
2022/04/10 00:03:19;;;;;;;4.25;1.88;;;;;;;;;;5047911;28;20025;-48
2022/04/10 00:05:45;;;;;;;2.70;1.60;;;;;;;;;;5054683;28;20166;-49
2022/04/10 00:08:11;;;;;;;5.75;1.73;;;;;;;;;;5045735;28;20465;-48
2022/04/10 00:10:37;;;;;;;3.83;1.60;;;;;;;;;;5050463;28;20532;-48
2022/04/10 00:13:03;;;;;;;2.55;1.73;;;;;;;;;;5035542;28;20116;-51
2022/04/10 00:15:29;;;;;;;6.15;2.22;;;;;;;;;;5054537;28;20087;-50
2022/04/10 00:17:55;;;;;;;3.38;2.33;;;;;;;;;;5043672;28;20057;-53
2022/04/10 00:20:21;;;;;;;7.32;2.00;;;;;;;;;;5038183;28;20135;-50
2022/04/10 00:22:48;;;;;;;5.80;3.20;;;;;;;;;;5046304;28;20112;-48
2022/04/10 00:25:15;;;;;;;4.72;2.10;;;;;;;;;;5041098;28;20025;-50
2022/04/10 00:27:41;;;;;;;4.38;2.17;;;;;;;;;;5049435;28;20018;-48
2022/04/10 00:30:08;;;;;;;7.68;2.40;;;;;;;;;;5054237;28;20095;-50
2022/04/10 00:32:34;;;;;;;5.97;2.50;;;;;;;;;;5046315;28;20044;-51
2022/04/10 00:35:00;;;;;;;7.57;2.80;;;;;;;;;;5044519;28;20033;-48
2022/04/10 00:37:26;;;;;;;10.45;2.97;;;;;;;;;;5047106;28;20117;-49
2022/04/10 00:39:53;;;;;;;8.80;3.10;;;;;;;;;;5051282;28;20025;-51
2022/04/10 00:42:19;;;;;;;5.72;2.30;;;;;;;;;;5053260;28;20476;-48
2022/04/10 00:44:45;;;;;;;3.78;2.60;;;;;;;;;;5044849;28;20528;-48
2022/04/10 00:47:11;;;;;;;5.40;2.67;;;;;;;;;;5047760;28;20027;-53
2022/04/10 00:49:37;;;;;;;4.70;2.63;;;;;;;;;;5053167;28;20401;-49
2022/04/10 00:52:06;;;;;;;8.15;2.58;;;;;;;;;;5044215;28;20039;-51
2022/04/10 00:54:33;;;;;;;9.45;3.30;;;;;;;;;;5048642;28;20039;-49
2022/04/10 00:57:00;;;;;;;8.20;2.78;;;;;;;;;;5048200;28;20701;-48
2022/04/10 00:59:27;;;;;;;4.30;2.75;;;;;;;;;;5047339;28;20044;-50
2022/04/10 01:01:53;;;;;;;5.88;2.40;;;;;;;;;;5049360;28;20055;-48
2022/04/10 01:04:19;;;;;;;6.18;3.25;;;;;;;;;;5051433;28;20469;-48
2022/04/10 01:06:47;;;;;;;9.82;2.80;;;;;;;;;;5052209;28;20032;-49
2022/04/10 01:09:13;;;;;;;8.00;3.53;;;;;;;;;;5042190;28;20098;-52
2022/04/10 01:11:39;;;;;;;7.43;2.67;;;;;;;;;;5044244;28;20029;-50
2022/04/10 01:14:06;;;;;;;4.43;2.72;;;;;;;;;;5049370;28;20040;-51
2022/04/10 01:16:32;;;;;;;4.80;2.92;;;;;;;;;;5052431;28;20025;-48
2022/04/10 01:18:58;;;;;;;8.07;3.03;;;;;;;;;;5044203;28;20041;-48
2022/04/10 01:21:29;;;;;;;8.57;3.08;;;;;;;;;;5035800;28;20377;-52
2022/04/10 01:23:56;;;;;;;4.95;2.80;;;;;;;;;;5040941;28;20067;-51
2022/04/10 01:26:22;;;;;;;11.20;3.63;;;;;;;;;;5048214;28;20030;-53
2022/04/10 01:28:58;;;;;;;3.95;2.63;;;;;;;;;;5041811;28;20025;-50
2022/04/10 01:31:24;;;;;;;5.40;2.92;;;;;;;;;;5040515;28;20024;-51
2022/04/10 01:33:50;;;;;;;6.80;3.47;;;;;;;;;;5040921;28;20026;-54
2022/04/10 01:36:17;;;;;;;5.85;3.25;;;;;;;;;;5038391;28;20409;-49
2022/04/10 01:38:44;;;;;;;6.60;2.90;;;;;;;;;;5044835;28;20075;-50
2022/04/10 01:41:14;;;;;;;5.88;3.10;;;;;;;;;;5051663;28;20020;-48
2022/04/10 01:43:45;;;;;;;8.10;2.95;;;;;;;;;;5051499;28;20094;-51
2022/04/10 01:46:12;;;;;;;3.58;2.83;;;;;;;;;;5040274;28;20053;-49
2022/04/10 01:48:38;;;;;;;9.30;3.30;;;;;;;;;;5049527;28;20040;-49
2022/04/10 01:51:04;;;;;;;7.32;3.25;;;;;;;;;;5049685;28;20586;-52
2022/04/10 01:53:30;;;;;;;6.15;3.22;;;;;;;;;;5050993;28;20037;-48
2022/04/10 01:55:56;;;;;;;7.35;3.20;;;;;;;;;;5047189;28;20118;-48
2022/04/10 01:58:22;;;;;;;6.28;3.38;;;;;;;;;;5052567;28;20112;-48
2022/04/10 02:00:48;;;;;;;9.77;3.83;;;;;;;;;;5037907;28;20033;-51
2022/04/10 02:03:14;;;;;;;4.20;3.30;;;;;;;;;;5039599;28;20108;-50
2022/04/10 02:05:40;;;;;;;6.45;3.25;;;;;;;;;;5047376;28;20116;-54
2022/04/10 02:08:06;;;;;;;11.05;3.30;;;;;;;;;;5048353;28;20100;-52
2022/04/10 02:10:32;;;;;;;11.98;3.40;;;;;;;;;;5049077;28;20044;-49
2022/04/10 02:12:58;;;;;;;7.78;3.65;;;;;;;;;;5044690;28;20068;-48
2022/04/10 02:15:24;;;;;;;6.00;3.50;;;;;;;;;;5050711;28;20124;-48
2022/04/10 02:17:50;;;;;;;14.40;4.82;;;;;;;;;;5046560;28;20035;-51
2022/04/10 02:20:16;;;;;;;8.57;4.00;;;;;;;;;;5051190;28;20031;-49
2022/04/10 02:22:42;;;;;;;11.65;4.10;;;;;;;;;;5046755;28;20033;-48
2022/04/10 02:25:08;;;;;;;11.13;3.58;;;;;;;;;;5045122;28;20017;-49
2022/04/10 02:27:34;;;;;;;6.68;3.35;;;;;;;;;;5050071;28;20358;-48
2022/04/10 02:30:00;;;;;;;11.73;4.38;;;;;;;;;;5045530;28;20365;-48
2022/04/10 02:32:29;;;;;;;9.07;4.57;;;;;;;;;;5031993;28;20025;-49
2022/04/10 02:34:55;;;;;;;6.72;3.70;;;;;;;;;;5036995;28;20052;-50
2022/04/10 02:37:21;;;;;;;7.97;3.83;;;;;;;;;;5034699;28;20048;-52
2022/04/10 02:39:47;;;;;;;7.32;3.38;;;;;;;;;;5047571;28;20071;-49
2022/04/10 02:42:13;;;;;;;8.75;3.75;;;;;;;;;;5050563;28;20449;-49
2022/04/10 02:44:38;;;;;;;10.93;3.75;;;;;;;;;;5036315;28;20032;-49
2022/04/10 02:47:05;;;;;;;10.20;3.40;;;;;;;;;;5045851;28;20025;-50
2022/04/10 02:49:31;;;;;;;6.82;3.33;;;;;;;;;;5051036;28;20024;-50
2022/04/10 02:51:57;;;;;;;11.40;3.35;;;;;;;;;;5050560;28;20033;-49
2022/04/10 02:54:23;;;;;;;6.88;3.80;;;;;;;;;;5048372;28;20025;-48
2022/04/10 02:56:48;;;;;;;9.02;3.47;;;;;;;;;;5044021;28;20114;-49
2022/04/10 02:59:14;;;;;;;6.72;3.33;;;;;;;;;;5042554;28;20029;-48
2022/04/10 03:01:40;;;;;;;9.10;4.63;;;;;;;;;;5043893;28;20098;-50
2022/04/10 03:04:06;;;;;;;8.82;2.90;;;;;;;;;;5051037;28;20025;-48
2022/04/10 03:06:32;;;;;;;8.65;3.17;;;;;;;;;;5049976;28;20035;-48
2022/04/10 03:08:58;;;;;;;7.32;3.63;;;;;;;;;;5051604;28;20071;-48
2022/04/10 03:11:25;;;;;;;5.53;3.10;;;;;;;;;;5040427;28;20026;-51
2022/04/10 03:13:51;;;;;;;6.82;3.00;;;;;;;;;;5050797;28;20537;-51
2022/04/10 03:16:17;;;;;;;10.40;3.47;;;;;;;;;;5041213;28;20061;-51
2022/04/10 03:18:43;;;;;;;12.30;3.75;;;;;;;;;;5051535;28;20139;-50
2022/04/10 03:21:09;;;;;;;9.82;3.05;;;;;;;;;;5051398;28;20032;-49
2022/04/10 03:23:35;;;;;;;7.13;3.03;;;;;;;;;;5049901;28;20029;-49
2022/04/10 03:26:01;;;;;;;9.02;3.05;;;;;;;;;;5051207;28;20028;-48
2022/04/10 03:28:27;;;;;;;7.28;2.97;;;;;;;;;;5041488;28;20026;-50
2022/04/10 03:30:53;;;;;;;6.90;2.60;;;;;;;;;;5032439;28;20033;-50
2022/04/10 03:33:19;;;;;;;8.48;3.30;;;;;;;;;;5051743;28;20037;-48
2022/04/10 03:35:45;;;;;;;5.35;2.42;;;;;;;;;;5050540;28;20032;-48
2022/04/10 03:38:11;;;;;;;10.05;3.03;;;;;;;;;;5036084;28;20473;-48
2022/04/10 03:40:37;;;;;;;6.43;2.97;;;;;;;;;;5035942;28;20037;-48
2022/04/10 03:43:03;;;;;;;3.55;2.35;;;;;;;;;;5048353;28;20116;-48
2022/04/10 03:45:29;;;;;;;5.40;2.60;;;;;;;;;;5044655;28;20101;-50
2022/04/10 03:47:55;;;;;;;9.15;3.28;;;;;;;;;;5055189;28;20048;-50
2022/04/10 03:50:21;;;;;;;10.18;3.15;;;;;;;;;;5052672;28;20033;-49
2022/04/10 03:52:47;;;;;;;7.00;2.70;;;;;;;;;;5053908;28;20031;-50
2022/04/10 03:55:13;;;;;;;12.90;2.95;;;;;;;;;;5040714;28;20495;-48
2022/04/10 03:57:39;;;;;;;12.10;3.22;;;;;;;;;;5054194;28;20056;-50
2022/04/10 04:00:06;;;;;;;6.50;2.63;;;;;;;;;;5042432;28;20050;-49
2022/04/10 04:02:32;;;;;;;7.78;2.20;;;;;;;;;;5054295;28;20031;-49
2022/04/10 04:04:58;;;;;;;11.13;3.47;;;;;;;;;;5054043;28;20025;-51
2022/04/10 04:07:24;;;;;;;10.00;3.45;;;;;;;;;;5044938;28;20029;-50
2022/04/10 04:09:50;;;;;;;6.32;2.50;;;;;;;;;;5052752;28;20040;-48
2022/04/10 04:12:16;;;;;;;10.57;2.85;;;;;;;;;;5044428;28;20025;-48
2022/04/10 04:14:42;;;;;;;9.45;2.95;;;;;;;;;;5044569;28;20037;-50
2022/04/10 04:17:08;;;;;;;6.82;2.45;;;;;;;;;;5040874;28;20032;-48
2022/04/10 04:19:34;;;;;;;6.35;2.83;;;;;;;;;;5051870;28;20028;-52
2022/04/10 04:22:00;;;;;;;9.10;2.83;;;;;;;;;;5034168;28;20485;-51
2022/04/10 04:24:26;;;;;;;6.07;2.67;;;;;;;;;;5047858;28;20021;-54
2022/04/10 04:26:52;;;;;;;8.15;3.03;;;;;;;;;;5044910;28;20512;-50
2022/04/10 04:29:18;;;;;;;9.63;2.80;;;;;;;;;;5044972;28;20022;-54
2022/04/10 04:31:45;;;;;;;9.52;2.40;;;;;;;;;;5039359;28;20056;-50
2022/04/10 04:34:13;;;;;;;8.30;2.90;;;;;;;;;;5053649;28;20498;-49
2022/04/10 04:36:39;;;;;;;9.35;2.70;;;;;;;;;;5054199;28;20206;-49
2022/04/10 04:39:05;;;;;;;6.50;3.45;;;;;;;;;;5050267;28;20106;-48
2022/04/10 04:41:31;;;;;;;10.45;3.13;;;;;;;;;;5044196;28;20033;-49
2022/04/10 04:43:57;;;;;;;7.75;2.63;;;;;;;;;;5046395;28;20060;-53
2022/04/10 04:46:23;;;;;;;4.43;2.20;;;;;;;;;;5047914;28;20842;-50
2022/04/10 04:48:49;;;;;;;12.73;2.47;;;;;;;;;;5043288;28;20036;-48
2022/04/10 04:51:15;;;;;;;7.45;2.55;;;;;;;;;;5051150;28;20082;-49
2022/04/10 04:53:41;;;;;;;11.80;2.47;;;;;;;;;;5053734;28;20518;-53
2022/04/10 04:56:07;;;;;;;12.88;2.88;;;;;;;;;;5045263;28;20121;-53
2022/04/10 04:58:33;;;;;;;7.40;2.00;;;;;;;;;;5049601;28;20028;-52
2022/04/10 05:00:59;;;;;;;9.75;2.65;;;;;;;;;;5049110;28;20497;-51
2022/04/10 05:03:25;;;;;;;6.20;2.20;;;;;;;;;;5033249;28;20037;-49
2022/04/10 05:05:51;;;;;;;5.10;2.10;;;;;;;;;;5037506;28;20020;-52
2022/04/10 05:08:19;;;;;;;6.95;2.60;;;;;;;;;;5038120;28;20021;-50
2022/04/10 05:10:46;;;;;;;10.32;3.50;;;;;;;;;;5049180;28;20044;-50
2022/04/10 05:13:12;;;;;;;11.07;2.58;;;;;;;;;;5048256;28;20361;-50
2022/04/10 05:15:38;;;;;;;6.55;2.53;;;;;;;;;;5046589;28;20025;-50
2022/04/10 05:18:04;;;;;;;9.70;2.63;;;;;;;;;;5037719;28;20045;-49
2022/04/10 05:20:30;;;;;;;11.55;2.70;;;;;;;;;;5037528;28;20028;-49
2022/04/10 05:22:56;;;;;;;10.20;2.75;;;;;;;;;;5038302;28;20041;-49
2022/04/10 05:25:22;;;;;;;14.85;3.05;;;;;;;;;;5046801;28;20485;-52
2022/04/10 05:27:48;;;;;;;5.63;2.38;;;;;;;;;;5042233;28;20025;-49
2022/04/10 05:30:14;;;;;;;8.73;3.22;;;;;;;;;;5036376;28;20124;-51
2022/04/10 05:32:43;;;;;;;15.98;2.97;;;;;;;;;;5043072;28;20458;-48
2022/04/10 05:35:12;;;;;;;8.13;2.90;;;;;;;;;;5043113;28;20036;-48
2022/04/10 05:37:38;;;;;;;8.23;2.50;;;;;;;;;;5036690;28;20074;-48
2022/04/10 05:40:04;;;;;;;9.18;2.72;;;;;;;;;;5033477;28;20669;-52
2022/04/10 05:42:30;;;;;;;7.80;2.42;;;;;;;;;;5044662;28;20505;-48
2022/04/10 05:45:03;;;;;;;6.97;2.08;;;;;;;;;;5042754;28;20059;-52
2022/04/10 05:47:29;;;;;;;5.22;2.17;;;;;;;;;;5033306;28;20087;-48
2022/04/10 05:49:56;;;;;;;8.52;2.35;;;;;;;;;;5037156;28;20056;-49
2022/04/10 05:52:22;;;;;;;11.75;2.40;;;;;;;;;;5045819;28;20033;-49
2022/04/10 05:54:48;;;;;;;8.07;2.72;;;;;;;;;;5041602;28;20033;-48
2022/04/10 05:57:14;;;;;;;10.77;2.88;;;;;;;;;;5052081;28;20055;-49
2022/04/10 05:59:40;;;;;;;6.95;2.38;;;;;;;;;;5039483;28;20029;-48
2022/04/10 06:02:06;;;;;;;8.93;2.60;;;;;;;;;;5051921;28;20375;-49
2022/04/10 06:04:32;;;;;;;8.02;2.45;;;;;;;;;;5042794;28;20029;-49
2022/04/10 06:06:58;;;;;;;7.53;2.55;;;;;;;;;;5051373;28;20029;-53
2022/04/10 06:09:24;;;;;;;6.35;2.70;;;;;;;;;;5043621;28;20029;-53
2022/04/10 06:11:50;;;;;;;6.88;2.10;;;;;;;;;;5038835;28;20477;-51
2022/04/10 06:14:16;;;;;;;6.07;2.33;;;;;;;;;;5038107;28;20029;-50
2022/04/10 06:16:41;;;;;;;11.27;2.38;;;;;;;;;;5049586;28;20032;-48
2022/04/10 06:19:07;;;;;;;9.25;2.50;;;;;;;;;;5042889;28;20040;-51
2022/04/10 06:21:33;;;;;;;9.73;2.85;;;;;;;;;;5046753;28;20043;-49
2022/04/10 06:23:59;;;;;;;5.80;2.60;;;;;;;;;;5042393;28;20029;-48
2022/04/10 06:26:25;;;;;;;9.02;1.85;;;;;;;;;;5035452;28;20029;-50
2022/04/10 06:28:53;;;;;;;9.52;2.13;;;;;;;;;;5045347;28;20417;-49
2022/04/10 06:31:19;;;;;;;3.20;1.88;;;;;;;;;;5032823;28;20021;-48
2022/04/10 06:33:45;;;;;;;7.65;2.22;;;;;;;;;;5038790;28;20373;-49
2022/04/10 06:36:11;;;;;;;8.15;1.83;;;;;;;;;;5043669;28;20059;-50
2022/04/10 06:38:37;;;;;;;7.25;2.80;;;;;;;;;;5033073;28;20025;-50
2022/04/10 06:41:03;;;;;;;9.88;2.10;;;;;;;;;;5029705;28;20025;-51
2022/04/10 06:43:29;;;;;;;7.65;1.95;;;;;;;;;;5032685;28;20029;-51
2022/04/10 06:45:54;;;;;;;7.57;2.17;;;;;;;;;;5035474;28;20036;-50
2022/04/10 06:48:20;;;;;;;6.50;2.40;;;;;;;;;;5039453;28;20017;-49
2022/04/10 06:50:46;;;;;;;6.18;1.75;;;;;;;;;;5029290;28;20029;-52
2022/04/10 06:53:12;;;;;;;10.80;2.22;;;;;;;;;;5035005;28;20100;-52
2022/04/10 06:55:38;;;;;;;6.93;1.58;;;;;;;;;;5039152;28;20117;-48
2022/04/10 06:58:04;;;;;;;10.27;2.40;;;;;;;;;;5040128;28;20026;-53
2022/04/10 07:00:31;;;;;;;4.47;2.22;;;;;;;;;;5043150;28;20123;-48
2022/04/10 07:03:01;;;;;;;11.00;2.70;;;;;;;;;;5050730;28;20433;-50
2022/04/10 07:05:27;;;;;;;6.40;2.85;;;;;;;;;;5038800;28;20492;-48
2022/04/10 07:07:54;;;;;;;7.90;2.03;;;;;;;;;;5041429;28;20128;-49
2022/04/10 07:10:21;;;;;;;8.07;2.08;;;;;;;;;;5036322;28;20104;-48
2022/04/10 07:12:47;;;;;;;6.68;1.88;;;;;;;;;;5040394;28;20104;-48
2022/04/10 07:15:13;;;;;;;8.27;2.60;;;;;;;;;;5039288;28;20029;-52
2022/04/10 07:17:38;;;;;;;4.43;1.60;;;;;;;;;;5046937;28;20033;-52
2022/04/10 07:20:05;;;;;;;6.40;1.92;;;;;;;;;;5042416;28;20036;-53
2022/04/10 07:25:15;;;;;;;11.25;1.95;;;;;;;;;;5046809;28;20102;-52
2022/04/10 07:27:41;;;;;;;6.78;2.00;;;;;;;;;;5046222;28;20449;-49
2022/04/10 07:30:07;;;;;;;5.43;2.20;;;;;;;;;;5037948;28;20033;-52
2022/04/10 07:32:33;;;;;;;10.60;2.85;;;;;;;;;;5041880;28;20068;-50
2022/04/10 07:35:03;;;;;;;9.85;2.00;;;;;;;;;;5047547;28;20032;-49
2022/04/10 07:37:29;;;;;;;3.20;1.85;;;;;;;;;;5043605;28;20038;-48
2022/04/10 07:39:55;;;;;;;6.28;2.05;;;;;;;;;;5043912;28;20034;-48
2022/04/10 07:42:21;;;;;;;4.43;2.25;;;;;;;;;;5046658;28;20124;-50
2022/04/10 07:44:47;;;;;;;6.13;2.00;;;;;;;;;;5040427;28;20021;-48
2022/04/10 07:47:25;;;;;;;7.57;1.70;;;;;;;;;;5051741;28;20047;-48
2022/04/10 07:49:51;;;;;;;6.32;2.03;;;;;;;;;;5042270;28;20025;-49
2022/04/10 07:52:17;;;;;;;12.27;2.03;;;;;;;;;;5038886;28;20493;-52
2022/04/10 07:54:43;;;;;;;9.05;2.50;;;;;;;;;;5036347;28;20439;-50
2022/04/10 07:57:09;;;;;;;8.55;2.20;;;;;;;;;;5050496;28;20068;-51
2022/04/10 07:59:35;;;;;;;8.90;2.15;;;;;;;;;;5045649;28;20033;-53
2022/04/10 08:02:02;;;;;;;9.27;3.58;;;;;;;;;;5050231;28;20068;-49
2022/04/10 08:04:28;;;;;;;5.03;2.00;;;;;;;;;;5054696;28;20029;-51
2022/04/10 08:06:54;;;;;;;18.98;2.40;;;;;;;;;;5047640;28;20071;-51
2022/04/10 08:09:20;;;;;;;8.75;2.30;;;;;;;;;;5044777;28;20021;-51
2022/04/10 08:11:46;;;;;;;5.93;1.70;;;;;;;;;;5050620;28;20453;-52
2022/04/10 08:14:12;;;;;;;7.95;2.17;;;;;;;;;;5054218;28;20032;-52
2022/04/10 08:16:38;;;;;;;8.40;1.73;;;;;;;;;;5054501;28;20361;-51
2022/04/10 08:19:04;;;;;;;5.95;1.88;;;;;;;;;;5047736;28;20040;-48
2022/04/10 08:21:30;;;;;;;6.05;1.70;;;;;;;;;;5046467;28;20021;-54
2022/04/10 08:23:56;;;;;;;4.88;2.05;;;;;;;;;;5047475;28;20032;-49
2022/04/10 08:26:22;;;;;;;10.25;1.90;;;;;;;;;;5043930;28;20147;-53
2022/04/10 08:28:48;;;;;;;6.30;1.50;;;;;;;;;;5041894;28;20032;-50
2022/04/10 08:31:14;;;;;;;8.40;2.10;;;;;;;;;;5037279;28;20044;-52
2022/04/10 08:33:40;;;;;;;5.05;1.67;;;;;;;;;;5051458;28;20033;-53
2022/04/10 08:36:06;;;;;;;7.40;1.92;;;;;;;;;;5052136;28;20495;-51
2022/04/10 08:38:32;;;;;;;5.00;1.90;;;;;;;;;;5046253;28;20048;-50
2022/04/10 08:41:01;;;;;;;11.68;2.33;;;;;;;;;;5043809;28;20038;-48
2022/04/10 08:43:27;;;;;;;9.98;2.13;;;;;;;;;;5047013;28;20036;-52
2022/04/10 08:45:56;;;;;;;7.22;2.03;;;;;;;;;;5046271;28;20036;-49
2022/04/10 08:48:26;;;;;;;7.63;2.83;;;;;;;;;;5037214;28;20123;-49
2022/04/10 08:50:52;;;;;;;8.90;2.28;;;;;;;;;;5048300;28;20031;-48
2022/04/10 08:53:19;;;;;;;7.18;2.25;;;;;;;;;;5049162;28;20031;-49
2022/04/10 08:55:44;;;;;;;8.95;2.13;;;;;;;;;;5046077;28;20090;-48
2022/04/10 08:58:11;;;;;;;6.70;1.88;;;;;;;;;;5048338;28;20067;-49
2022/04/10 09:00:37;;;;;;;6.38;1.90;;;;;;;;;;5039899;28;20029;-48
2022/04/10 09:03:04;;;;;;;6.30;1.73;;;;;;;;;;5043742;28;20363;-50
2022/04/10 09:05:30;;;;;;;7.68;2.47;;;;;;;;;;5034096;28;20437;-51
2022/04/10 09:08:12;;;;;;;9.63;1.90;;;;;;;;;;5045442;28;20021;-51
2022/04/10 09:10:57;;;;;;;5.28;2.05;;;;;;;;;;5040165;28;20029;-50
2022/04/10 09:13:33;;;;;;;11.65;2.33;;;;;;;;;;5050492;28;20107;-48
2022/04/10 09:16:10;;;;;;;9.40;2.15;;;;;;;;;;5046673;28;20048;-49
2022/04/10 09:18:47;;;;;;;4.32;1.73;;;;;;;;;;5053160;28;20025;-49
2022/04/10 09:21:13;;;;;;;11.07;2.35;;;;;;;;;;5037794;28;20533;-49
2022/04/10 09:23:39;;;;;;;6.35;2.40;;;;;;;;;;5034501;28;20079;-52
2022/04/10 09:26:06;;;;;;;10.68;3.20;;;;;;;;;;5044405;28;20035;-53
2022/04/10 09:28:45;;;;;;;13.65;2.72;;;;;;;;;;5036863;28;20032;-52
2022/04/10 09:31:26;;;;;;;7.65;2.08;;;;;;;;;;5035742;28;20055;-54
2022/04/10 09:33:53;;;;;;;7.70;1.80;;;;;;;;;;5041552;28;20501;-53
2022/04/10 09:36:29;;;;;;;5.20;2.00;;;;;;;;;;5037955;28;20063;-51
2022/04/10 09:38:55;;;;;;;9.30;1.77;;;;;;;;;;5037166;28;20030;-49
2022/04/10 09:41:21;;;;;;;9.15;1.50;;;;;;;;;;5049583;28;20675;-53
2022/04/10 09:43:47;;;;;;;9.93;1.90;;;;;;;;;;5034555;28;20364;-49
2022/04/10 09:46:14;;;;;;;5.07;1.80;;;;;;;;;;5033812;28;20041;-50
2022/04/10 09:48:40;;;;;;;7.55;1.50;;;;;;;;;;5043235;28;20446;-51
2022/04/10 09:51:06;;;;;;;5.68;1.73;;;;;;;;;;5044758;28;20025;-48
2022/04/10 09:53:33;;;;;;;4.20;1.30;;;;;;;;;;5033465;28;20037;-48
2022/04/10 09:56:18;;;;;;;5.18;1.23;;;;;;;;;;5035929;28;20073;-48
2022/04/10 09:58:45;;;;;;;4.55;1.67;;;;;;;;;;5038290;28;20037;-52
2022/04/10 10:01:11;;;;;;;6.32;1.75;;;;;;;;;;5039676;28;20041;-50
2022/04/10 10:03:38;;;;;;;8.23;1.50;;;;;;;;;;5044067;28;20040;-49
2022/04/10 10:06:05;;;;;;;10.32;1.92;;;;;;;;;;5034022;28;20033;-48
2022/04/10 10:08:31;;;;;;;4.32;1.05;;;;;;;;;;5038907;28;20025;-48
2022/04/10 10:10:58;;;;;;;5.30;1.42;;;;;;;;;;5036214;28;20079;-50
2022/04/10 10:13:26;;;;;;;4.55;1.13;;;;;;;;;;5039164;28;20539;-51
2022/04/10 10:15:54;;;;;;;4.93;1.50;;;;;;;;;;5042134;28;20119;-48
2022/04/10 10:18:21;;;;;;;7.63;1.45;;;;;;;;;;5039678;28;20458;-53
2022/04/10 10:20:48;;;;;;;7.22;1.85;;;;;;;;;;5047705;28;20086;-50
2022/04/10 10:23:14;;;;;;;7.55;1.90;;;;;;;;;;5044983;28;20033;-49
2022/04/10 10:25:43;;;;;;;8.48;1.20;;;;;;;;;;5044418;28;20036;-51
2022/04/10 10:28:18;;;;;;;5.28;1.10;;;;;;;;;;5034206;28;20470;-47
2022/04/10 10:30:52;;;;;;;11.98;2.00;;;;;;;;;;5043194;28;20033;-49
2022/04/10 10:33:18;;;;;;;;;;;;;;;;;;5037723;28;20040;-48
2022/04/10 10:35:51;;;;;;;10.45;1.90;;;;;;;;;;5044123;28;19995;-49
2022/04/10 10:38:21;;;;;;;15.15;2.03;;;;;;;;;;5040801;28;20026;-50
2022/04/10 10:40:48;;;;;;;5.32;1.52;;;;;;;;;;5035140;28;20095;-52
2022/04/10 10:43:18;;;;;;;4.20;1.40;;;;;;;;;;5037074;28;20056;-48
2022/04/10 10:45:44;;;;;;;10.75;3.45;;;;;;;;;;5039801;28;20072;-50
2022/04/10 10:48:25;;;;;;;5.65;2.13;;;;;;;;;;5051389;28;20025;-48
2022/04/10 10:50:52;;;;;;;4.80;1.75;;;;;;;;;;5044077;28;20032;-48
2022/04/10 10:53:38;;;;;;;4.32;1.40;;;;;;;;;;5033061;28;20120;-47
2022/04/10 10:56:05;;;;;;;3.85;1.40;;;;;;;;;;5044239;28;20048;-49
2022/04/10 10:58:32;;;;;;;7.80;1.27;;;;;;;;;;5046101;28;20070;-51
2022/04/10 11:01:03;;;;;;;6.25;1.60;;;;;;;;;;5043015;28;20043;-47
2022/04/10 11:03:29;;;;;;;8.68;1.25;;;;;;;;;;5038933;28;20079;-48
2022/04/10 11:06:06;;;;;;;2.88;0.90;;;;;;;;;;5051606;28;20021;-50
2022/04/10 11:08:39;;;;;;;3.85;1.27;;;;;;;;;;5043266;28;20025;-48
2022/04/10 11:11:05;;;;;;;6.80;1.17;;;;;;;;;;5044122;28;20108;-50
2022/04/10 11:13:42;;;;;;;5.25;1.48;;;;;;;;;;5039686;28;20412;-48
2022/04/10 11:16:12;;;;;;;8.55;2.03;;;;;;;;;;5041024;28;20478;-52
2022/04/10 11:18:42;;;;;;;4.57;1.70;;;;;;;;;;5035341;28;20029;-50
2022/04/10 11:21:17;;;;;;;4.68;1.35;;;;;;;;;;5046130;28;20029;-48
2022/04/10 11:23:47;;;;;;;8.18;1.30;;;;;;;;;;5047776;28;20021;-52
2022/04/10 11:26:14;;;;;;;3.20;2.10;;;;;;;;;;5043060;28;20025;-49
2022/04/10 11:28:55;;;;;;;5.88;1.10;;;;;;;;;;5039276;28;20033;-48
2022/04/10 11:31:40;;;;;;;4.80;1.02;;;;;;;;;;5047185;28;20576;-49
2022/04/10 11:34:08;;;;;;;4.47;1.30;;;;;;;;;;5037383;28;20030;-49
2022/04/10 11:36:55;;;;;;;3.90;0.95;;;;;;;;;;5043272;28;20104;-49
2022/04/10 11:39:28;;;;;;;2.80;0.93;;;;;;;;;;5050650;28;20037;-49
2022/04/10 11:41:57;;;;;;;5.45;0.88;;;;;;;;;;5040554;28;20060;-51
2022/04/10 11:44:25;;;;;;;1.85;0.80;;;;;;;;;;5045464;28;20028;-52
2022/04/10 11:46:51;;;;;;;3.38;1.35;;;;;;;;;;5042637;28;20033;-51
2022/04/10 11:49:18;;;;;;;3.63;1.00;;;;;;;;;;5036127;28;20104;-48
2022/04/10 11:51:54;;;;;;;5.53;1.58;;;;;;;;;;5039521;28;20082;-48
2022/04/10 11:54:27;;;;;;;6.28;1.42;;;;;;;;;;5039080;28;20029;-48
2022/04/10 11:56:53;;;;;;;4.07;1.42;;;;;;;;;;5047593;28;20049;-48
2022/04/10 11:59:20;;;;;;;4.65;1.00;;;;;;;;;;5044472;28;20017;-51
2022/04/10 12:01:46;;;;;;;3.40;1.20;;;;;;;;;;5041296;28;20037;-50
2022/04/10 12:04:12;;;;;;;4.13;0.93;;;;;;;;;;5038726;28;20033;-48
2022/04/10 12:06:38;;;;;;;6.05;1.92;;;;;;;;;;5039585;28;20466;-48
2022/04/10 12:09:04;;;;;;;3.70;1.02;;;;;;;;;;5037947;28;20036;-48
2022/04/10 12:11:40;;;;;;;6.90;1.35;;;;;;;;;;5041231;28;20044;-53
2022/04/10 12:14:35;;;;;;;5.40;1.20;;;;;;;;;;5050536;28;20037;-50
2022/04/10 12:17:01;;;;;;;5.45;1.27;;;;;;;;;;5043444;28;20055;-47
2022/04/10 12:19:31;;;;;;;7.90;1.27;;;;;;;;;;5041390;28;20029;-51
2022/04/10 12:21:57;;;;;;;5.28;1.13;;;;;;;;;;5037222;28;20175;-49
2022/04/10 12:24:23;;;;;;;4.72;1.35;;;;;;;;;;5035776;28;20049;-48
2022/04/10 12:26:50;;;;;;;1.80;0.95;;;;;;;;;;5041456;28;20530;-50
2022/04/10 12:29:17;;;;;;;6.68;1.63;;;;;;;;;;5045052;28;20439;-50
2022/04/10 12:31:43;;;;;;;8.75;3.45;;;;;;;;;;5042538;28;20021;-49
2022/04/10 12:34:13;;;;;;;6.57;3.65;;;;;;;;;;5045894;28;20473;-52
2022/04/10 12:36:52;;;;;;;3.90;1.75;;;;;;;;;;5046116;28;20043;-51
2022/04/10 12:39:23;;;;;;;6.43;1.23;;;;;;;;;;5045778;28;20034;-54
2022/04/10 12:41:57;;;;;;;4.20;1.38;;;;;;;;;;5046532;28;20067;-50
2022/04/10 12:44:23;;;;;;;4.35;0.88;;;;;;;;;;5044959;28;20033;-50
2022/04/10 12:46:49;;;;;;;2.50;0.55;;;;;;;;;;5036114;28;20087;-47
2022/04/10 12:49:17;;;;;;;4.72;1.20;;;;;;;;;;5038361;28;20032;-51
2022/04/10 12:52:05;;;;;;;3.55;0.80;;;;;;;;;;5047045;28;20078;-48
2022/04/10 12:54:37;;;;;;;1.02;0.70;;;;;;;;;;5035688;28;20043;-49
2022/04/10 12:57:03;;;;;;;3.72;1.02;;;;;;;;;;5041561;28;20056;-48
2022/04/10 12:59:36;;;;;;;4.10;1.17;;;;;;;;;;5039432;28;20060;-49
2022/04/10 13:02:03;;;;;;;3.77;1.60;;;;;;;;;;5034011;28;20025;-50
2022/04/10 13:04:29;;;;;;;5.32;1.50;;;;;;;;;;5042229;28;20385;-49
2022/04/10 13:06:56;;;;;;;4.03;1.33;;;;;;;;;;5046431;28;20017;-50
2022/04/10 13:09:22;;;;;;;5.80;1.20;;;;;;;;;;5040542;28;20032;-48
2022/04/10 13:11:50;;;;;;;1.90;0.95;;;;;;;;;;5038872;28;20036;-53
2022/04/10 13:14:19;;;;;;;2.38;0.70;;;;;;;;;;5048417;28;20023;-53
2022/04/10 13:16:47;;;;;;;1.58;0.60;;;;;;;;;;5050092;28;20025;-52
2022/04/10 13:19:17;;;;;;;3.83;1.50;;;;;;;;;;5053278;28;20049;-49
2022/04/10 13:21:45;;;;;;;2.40;0.47;;;;;;;;;;5052637;28;20017;-50
2022/04/10 13:24:11;;;;;;;2.88;0.85;;;;;;;;;;5042538;28;20061;-51
2022/04/10 13:26:38;;;;;;;4.38;0.82;;;;;;;;;;5038187;28;20021;-51
2022/04/10 13:29:07;;;;;;;5.75;0.85;;;;;;;;;;5053146;28;20029;-49
2022/04/10 13:31:33;;;;;;;4.10;1.80;;;;;;;;;;5052620;28;20403;-49
2022/04/10 13:33:59;;;;;;;4.97;1.02;;;;;;;;;;5038094;28;20036;-54
2022/04/10 13:36:25;;;;;;;3.85;0.93;;;;;;;;;;5049919;28;20039;-50
2022/04/10 13:38:51;;;;;;;3.05;0.52;;;;;;;;;;5046498;28;20022;-49
2022/04/10 13:41:18;;;;;;;2.63;0.95;;;;;;;;;;5041212;28;20037;-49
2022/04/10 13:43:44;;;;;;;2.25;0.43;;;;;;;;;;5052867;28;20065;-49
2022/04/10 13:46:10;;;;;;;3.20;1.13;;;;;;;;;;5042319;28;20389;-51
2022/04/10 13:48:36;;;;;;;2.00;0.50;;;;;;;;;;5042280;28;20028;-51
2022/04/10 13:51:02;;;;;;;3.83;0.80;;;;;;;;;;5038795;28;20025;-51
2022/04/10 13:53:29;;;;;;;3.40;0.65;;;;;;;;;;5052647;28;20071;-53
2022/04/10 13:55:55;;;;;;;2.30;0.60;;;;;;;;;;5051822;28;20131;-49
2022/04/10 13:58:21;;;;;;;1.55;0.50;;;;;;;;;;5048785;28;20040;-51
2022/04/10 14:00:47;;;;;;;1.58;0.40;;;;;;;;;;5052099;28;20450;-51
2022/04/10 14:03:13;;;;;;;1.38;0.70;;;;;;;;;;5039656;28;20037;-48
2022/04/10 14:05:39;;;;;;;4.32;1.10;;;;;;;;;;5043403;28;20021;-48
2022/04/10 14:08:05;;;;;;;1.95;0.25;;;;;;;;;;5042498;28;20377;-51
2022/04/10 14:10:31;;;;;;;2.40;0.88;;;;;;;;;;5050502;28;20486;-50
2022/04/10 14:12:57;;;;;;;3.25;0.93;;;;;;;;;;5042983;28;20059;-48
2022/04/10 14:15:23;;;;;;;1.95;0.77;;;;;;;;;;5035624;28;20029;-52
2022/04/10 14:17:55;;;;;;;1.15;0.45;;;;;;;;;;5036034;28;20441;-50
2022/04/10 14:20:22;;;;;;;1.98;0.57;;;;;;;;;;5052230;28;20047;-48
2022/04/10 14:22:48;;;;;;;2.42;0.63;;;;;;;;;;5050968;28;20361;-48
2022/04/10 14:25:13;;;;;;;2.58;0.60;;;;;;;;;;5038443;28;20025;-52
2022/04/10 14:27:40;;;;;;;1.42;0.45;;;;;;;;;;5051796;28;20774;-53
2022/04/10 14:30:06;;;;;;;0.38;0.20;;;;;;;;;;5046442;28;20055;-53
2022/04/10 14:32:32;;;;;;;1.17;0.40;;;;;;;;;;5039058;28;20432;-49
2022/04/10 14:34:58;;;;;;;1.15;0.30;;;;;;;;;;5041359;28;20029;-48
2022/04/10 14:37:24;;;;;;;1.85;0.30;;;;;;;;;;5044822;28;20033;-49
2022/04/10 14:39:50;;;;;;;3.33;0.43;;;;;;;;;;5047873;28;20075;-48
2022/04/10 14:42:16;;;;;;;2.78;0.30;;;;;;;;;;5038120;28;20458;-48
2022/04/10 14:44:44;;;;;;;0.68;0.30;;;;;;;;;;5048208;28;20025;-54